Detall de PIREP

Printer-friendly versionPDF version

[2017/02/25 15:29:00]
Flight IATA:CT1001
Pilot Number:012
Company ICAO:CAT
Aircraft Type:C750/F
PAX:4
Departing Airport: LIEO
Destination Airport: LEMH
Alternate Airport:LEPA
Online: VATSIM
Route:MINKA Q182 MALAV M601 GINOX UM601 BALEN UT250 RIXOT
Flight Level:F290
No Slew and time accel
No pause
Crash detect
Detect pilot in Cockpit between each 30 and 45 minutes
15:29 Zero fuel Weight: 22930 Lbs, Fuel Weight: 4942 Lbs
15:29 VATSIM:LIEO 251750Z 36011KT 330V030 9999 FEW020 BKN035 13/06 Q1017
15:29 VATSIM:LEMH 251800Z 36007KT 9999 FEW030 09/07 Q1020
15:29 ISLAND HOP FLY-IN LIEO-LEMH
15:29 Parking Brakes off
15:33 Take-off
15:33 Take off Weight: 27794 Lbs
15:33 Wind: 342º @ 011 Knots Heading: 238º
15:33 POS N40º 53´ 47´´ E009º 30´ 50´´
15:33 Gear Up: 155 Knots
15:33 Flaps:3 at 155 Knots
15:33 Flaps:2 at 167 Knots
15:33 Flaps:0 at 189 Knots
15:41 TOC
15:41 Fuel Weight: 4447 Lb
15:48 Wind:029º@060 Knots Heading: 279º Ground Speed: 450 Knots Altitude 29117 ft
15:57 TOD
15:57 Fuel Weight: 4010 Lb
16:03 Wind:012º@026 Knots Heading: 241º Ground Speed: 410 Knots Altitude 18713 ft
16:10 Flaps:2 at 200 Knots
16:10 Flaps:3 at 199 Knots
16:13 Gear Down: 154 Knots
16:13 Flaps:4 at 154 Knots
16:14 Flaps:5 at 145 Knots
16:15 TouchDown:Rate -162 ft/min Speed: 116 Knots
16:16 Flaps:3 at 66 Knots
16:16 Flaps:0 at 63 Knots
16:16 VATSIM:LEMH 251900Z 01004KT 9999 FEW025 08/06 Q1020
16:16 Land
16:16 Wind:359º@004 Knots
16:16 Heading: 012º
16:16 Flight Duration: 00:43
16:16 Landing Weight: 26690 Lbs
16:16 POS N39º 51´ 47´´ E004º 13´ 06´´
16:20 Parking brakes on
16:20 Block to Block Duration: 00:51
16:20 Final Fuel: 3716 Lbls
16:20 Spent Fuel: 1225 Lbls
16:20 Flight Length: 275 NM
16:20 TOD Land Length: 98 NM

Exportar CSV

Powered by Drupal - Modified by Danger4k